createdAt,value
2024-01-19T00:00:08.982Z,23.97
2024-01-19T00:03:17.147Z,33.07
2024-01-19T00:06:24.446Z,28.27
2024-01-19T00:09:31.246Z,26.80
2024-01-19T00:12:38.066Z,55.57
2024-01-19T00:15:44.574Z,26.87
2024-01-19T00:18:52.958Z,27.27
2024-01-19T00:21:59.259Z,30.93
2024-01-19T00:25:06.182Z,26.77
2024-01-19T00:28:13.027Z,47.63
2024-01-19T00:31:19.476Z,33.40
2024-01-19T00:34:27.357Z,32.53
2024-01-19T00:37:34.035Z,35.00
2024-01-19T00:40:40.476Z,52.93
2024-01-19T00:43:47.127Z,62.23
2024-01-19T00:46:53.233Z,42.57
2024-01-19T00:50:01.006Z,42.07
2024-01-19T00:53:07.483Z,17.17
2024-01-19T00:56:17.235Z,22.90
2024-01-19T00:59:23.800Z,35.43
2024-01-19T01:02:32.622Z,24.93
2024-01-19T01:05:41.364Z,18.50
2024-01-19T01:08:48.815Z,22.43
2024-01-19T01:11:55.021Z,13.37
2024-01-19T01:15:01.586Z,19.83
2024-01-19T01:18:08.184Z,21.30
2024-01-19T01:21:16.153Z,9.63
2024-01-19T01:24:23.668Z,10.93
2024-01-19T01:27:29.913Z,25.47
2024-01-19T01:30:36.246Z,23.70
2024-01-19T01:33:43.529Z,23.70
2024-01-19T01:36:51.221Z,28.87
2024-01-19T01:39:57.683Z,39.00
2024-01-19T01:43:06.669Z,36.97
2024-01-19T01:46:13.388Z,44.50
2024-01-19T01:49:20.057Z,46.07
2024-01-19T01:52:28.284Z,38.43
2024-01-19T01:55:34.692Z,31.23
2024-01-19T01:58:41.331Z,22.20
2024-01-19T02:01:48.075Z,30.97
2024-01-19T02:04:54.629Z,30.00
2024-01-19T02:08:04.835Z,30.20
2024-01-19T02:11:11.331Z,33.70
2024-01-19T02:14:17.858Z,25.77
2024-01-19T02:17:25.470Z,22.30
2024-01-19T02:20:31.919Z,27.67
2024-01-19T02:23:49.844Z,24.03
2024-01-19T02:26:58.743Z,38.07
2024-01-19T02:30:05.508Z,33.00
2024-01-19T02:33:13.017Z,33.83
2024-01-19T02:36:20.702Z,47.50
2024-01-19T02:39:27.008Z,36.60
2024-01-19T02:42:35.002Z,31.10
2024-01-19T02:45:42.720Z,26.80
2024-01-19T02:48:49.270Z,34.40
2024-01-19T02:51:56.009Z,39.83
2024-01-19T02:55:02.373Z,27.17
2024-01-19T02:58:10.172Z,35.00
2024-01-19T03:01:17.682Z,42.13
2024-01-19T03:04:24.320Z,37.67
2024-01-19T03:07:30.856Z,46.67
2024-01-19T03:10:38.414Z,45.90
2024-01-19T03:13:46.412Z,52.60
2024-01-19T03:16:53.535Z,51.93
2024-01-19T03:19:59.992Z,46.17
2024-01-19T03:23:07.156Z,42.10
2024-01-19T03:26:13.428Z,34.90
2024-01-19T03:29:21.456Z,41.03
2024-01-19T03:32:27.697Z,46.27
2024-01-19T03:35:34.650Z,40.10
2024-01-19T03:38:40.993Z,31.63
2024-01-19T03:41:47.306Z,36.10
2024-01-19T03:44:55.510Z,53.80
2024-01-19T03:48:02.758Z,56.70
2024-01-19T03:51:09.817Z,37.93
2024-01-19T03:54:16.377Z,53.13
2024-01-19T03:57:22.641Z,73.53
2024-01-19T04:00:30.588Z,57.40
2024-01-19T04:03:37.037Z,48.93
2024-01-19T04:06:43.806Z,64.95
2024-01-19T04:09:50.845Z,45.23
2024-01-19T04:12:57.704Z,57.70
2024-01-19T04:16:07.038Z,63.10
2024-01-19T04:19:13.800Z,96.80
2024-01-19T04:22:20.092Z,87.37
2024-01-19T04:25:26.646Z,150.27
2024-01-19T04:28:33.416Z,94.70
2024-01-19T04:31:41.128Z,93.77
2024-01-19T04:34:47.343Z,119.37
2024-01-19T04:37:53.984Z,100.17
2024-01-19T04:41:00.381Z,127.73
2024-01-19T04:44:07.766Z,81.90
2024-01-19T04:47:15.478Z,39.17
2024-01-19T04:50:22.628Z,29.20
2024-01-19T04:53:29.731Z,32.67
2024-01-19T04:56:36.270Z,30.73
2024-01-19T04:59:43.044Z,71.43
2024-01-19T05:02:51.436Z,61.63
2024-01-19T05:05:57.858Z,49.50
2024-01-19T05:09:06.058Z,22.33
2024-01-19T05:12:12.366Z,23.63
2024-01-19T05:15:20.733Z,51.70
2024-01-19T05:18:30.629Z,39.53
2024-01-19T05:21:37.343Z,50.73
2024-01-19T05:24:44.160Z,53.67
2024-01-19T05:27:52.433Z,71.40
2024-01-19T05:30:58.755Z,87.93
2024-01-19T05:34:07.091Z,139.10
2024-01-19T05:37:13.897Z,149.43
2024-01-19T05:40:20.327Z,165.03
2024-01-19T05:43:27.004Z,160.23
2024-01-19T05:46:33.381Z,172.63
2024-01-19T05:49:42.774Z,131.60
2024-01-19T05:52:49.401Z,110.40
2024-01-19T05:55:55.650Z,96.93
2024-01-19T05:59:02.937Z,128.90
2024-01-19T06:02:09.402Z,87.10
2024-01-19T06:05:17.288Z,89.93
2024-01-19T06:08:23.597Z,113.93
2024-01-19T06:11:30.470Z,112.97
2024-01-19T06:14:37.564Z,114.20
2024-01-19T06:17:43.986Z,58.23
2024-01-19T06:20:53.357Z,153.03
2024-01-19T06:23:59.919Z,97.60
2024-01-19T06:27:06.940Z,202.87
2024-01-19T06:30:14.482Z,194.70
2024-01-19T06:33:21.101Z,239.60
2024-01-19T06:36:29.953Z,208.93
2024-01-19T06:39:36.628Z,356.73
2024-01-19T06:42:43.137Z,148.07
2024-01-19T06:45:49.800Z,111.10
2024-01-19T06:48:56.724Z,108.63
2024-01-19T06:52:05.866Z,103.57
2024-01-19T06:55:12.666Z,94.67
2024-01-19T06:58:19.168Z,89.17
2024-01-19T07:01:25.594Z,103.50
2024-01-19T07:04:32.131Z,175.23
2024-01-19T07:07:40.283Z,154.50
2024-01-19T07:10:46.892Z,151.40
2024-01-19T07:13:53.974Z,97.63
2024-01-19T07:17:00.506Z,100.80
2024-01-19T07:20:08.513Z,129.27
2024-01-19T07:23:16.405Z,127.80
2024-01-19T07:26:23.112Z,101.17
2024-01-19T07:29:30.083Z,88.73
2024-01-19T07:32:51.157Z,56.27
2024-01-19T07:36:03.594Z,82.00
2024-01-19T07:39:12.823Z,73.50
2024-01-19T07:42:19.571Z,76.67
2024-01-19T07:45:26.192Z,64.83
2024-01-19T07:48:33.107Z,61.37
2024-01-19T07:51:39.708Z,39.67
2024-01-19T07:54:48.068Z,67.00
2024-01-19T07:57:54.561Z,65.57
2024-01-19T08:01:01.252Z,81.83
2024-01-19T08:04:07.699Z,48.03
2024-01-19T08:07:14.610Z,39.90
2024-01-19T08:10:22.682Z,22.67
2024-01-19T08:13:29.166Z,16.33
2024-01-19T08:16:36.934Z,22.40
2024-01-19T08:19:43.193Z,100.50
2024-01-19T08:22:49.696Z,34.10
2024-01-19T08:25:59.638Z,32.40
2024-01-19T08:29:07.803Z,26.30
2024-01-19T08:32:14.238Z,28.10
2024-01-19T08:35:20.719Z,35.20
2024-01-19T08:38:26.960Z,25.40
2024-01-19T08:41:41.828Z,21.27
2024-01-19T08:44:48.559Z,53.27
2024-01-19T08:47:58.690Z,40.40
2024-01-19T08:51:05.977Z,37.37
2024-01-19T08:54:13.268Z,40.33
2024-01-19T08:57:21.543Z,50.27
2024-01-19T09:00:28.436Z,36.40
2024-01-19T09:03:35.061Z,43.63
2024-01-19T09:06:45.297Z,37.43
2024-01-19T09:09:52.954Z,39.97
2024-01-19T09:13:01.082Z,36.40
2024-01-19T09:16:08.938Z,81.70
2024-01-19T09:19:16.415Z,57.20
2024-01-19T09:22:23.437Z,42.00
2024-01-19T09:25:30.082Z,40.53
2024-01-19T09:28:38.245Z,36.23
2024-01-19T09:31:45.577Z,37.90
2024-01-19T09:34:52.415Z,30.77
2024-01-19T09:37:58.769Z,30.03
2024-01-19T09:41:23.303Z,35.07
2024-01-19T09:44:37.201Z,35.13
2024-01-19T09:47:55.034Z,30.23
2024-01-19T09:51:04.352Z,28.97
2024-01-19T09:54:16.731Z,26.40
2024-01-19T09:57:23.464Z,35.33
2024-01-19T10:00:31.814Z,34.27
2024-01-19T10:03:39.139Z,30.23
2024-01-19T10:06:46.476Z,26.67
2024-01-19T10:09:54.384Z,26.87
2024-01-19T10:13:01.030Z,36.10
2024-01-19T10:16:09.297Z,27.13
2024-01-19T10:19:17.441Z,32.13
2024-01-19T10:22:28.844Z,30.07
2024-01-19T10:25:36.275Z,39.33
2024-01-19T10:28:43.028Z,27.83
2024-01-19T10:31:52.497Z,27.90
2024-01-19T10:35:07.253Z,22.80
2024-01-19T10:38:13.680Z,27.17
2024-01-19T10:41:26.759Z,41.30
2024-01-19T10:44:33.536Z,37.77
2024-01-19T10:47:45.085Z,44.77
2024-01-19T10:50:51.943Z,32.83
2024-01-19T10:54:04.866Z,28.83
2024-01-19T10:57:11.597Z,31.43
2024-01-19T11:00:26.124Z,39.63
2024-01-19T11:03:34.513Z,38.47
2024-01-19T11:06:42.682Z,36.03
2024-01-19T11:09:49.220Z,31.10
2024-01-19T11:12:58.121Z,38.20
2024-01-19T11:16:09.714Z,35.70
2024-01-19T11:19:19.373Z,35.63
2024-01-19T11:22:26.980Z,33.10
2024-01-19T11:25:54.068Z,43.13
2024-01-19T11:29:03.542Z,38.10
2024-01-19T11:32:10.713Z,36.77
2024-01-19T11:35:41.118Z,42.30
2024-01-19T11:38:49.875Z,37.17
2024-01-19T11:41:56.430Z,45.63
2024-01-19T11:45:03.784Z,39.77
2024-01-19T11:48:10.481Z,45.00
2024-01-19T11:51:35.720Z,43.40
2024-01-19T11:54:43.522Z,48.40
2024-01-19T11:57:50.404Z,54.03
2024-01-19T12:00:57.838Z,36.97
2024-01-19T12:04:04.901Z,22.90
2024-01-19T12:07:13.196Z,25.27
2024-01-19T12:10:20.322Z,45.13
2024-01-19T12:13:27.049Z,39.83
2024-01-19T12:16:33.598Z,86.93
2024-01-19T12:19:41.838Z,147.70
2024-01-19T12:22:57.306Z,101.57
2024-01-19T12:26:06.104Z,91.80
2024-01-19T12:29:12.932Z,66.60
2024-01-19T12:32:22.040Z,50.77
2024-01-19T12:35:29.058Z,49.67
2024-01-19T12:38:37.189Z,65.70
2024-01-19T12:41:44.602Z,48.93
2024-01-19T12:44:57.453Z,66.47
2024-01-19T12:48:10.088Z,98.03
2024-01-19T12:51:24.898Z,58.53
2024-01-19T12:54:45.155Z,67.87
2024-01-19T12:57:51.959Z,47.83
2024-01-19T13:01:08.692Z,60.57
2024-01-19T13:04:16.993Z,31.50
2024-01-19T13:07:24.869Z,41.00
2024-01-19T13:10:33.602Z,38.73
2024-01-19T13:13:40.551Z,41.17
2024-01-19T13:16:55.921Z,79.53
2024-01-19T13:20:05.398Z,66.30
2024-01-19T13:23:12.374Z,66.20
2024-01-19T13:26:21.520Z,49.40
2024-01-19T13:29:28.540Z,114.63
2024-01-19T13:32:35.740Z,66.10
2024-01-19T13:35:42.180Z,48.33
2024-01-19T13:38:49.569Z,36.33
2024-01-19T13:41:57.720Z,42.93
2024-01-19T13:45:06.385Z,75.40
2024-01-19T13:48:12.746Z,117.40
2024-01-19T13:51:19.607Z,193.37
2024-01-19T13:54:26.414Z,200.13
2024-01-19T13:57:34.456Z,236.63
2024-01-19T14:00:41.271Z,165.93
2024-01-19T14:03:48.313Z,71.93
2024-01-19T14:06:55.232Z,52.90
2024-01-19T14:10:02.056Z,30.87
2024-01-19T14:13:10.092Z,34.47
2024-01-19T14:16:17.222Z,46.17
2024-01-19T14:19:24.032Z,61.77
2024-01-19T14:22:30.787Z,81.47
2024-01-19T14:25:37.545Z,79.63
2024-01-19T14:28:46.514Z,115.33
2024-01-19T14:31:53.543Z,73.73
2024-01-19T14:35:00.782Z,52.57
2024-01-19T14:38:08.283Z,44.27
2024-01-19T14:41:14.781Z,97.60
2024-01-19T14:44:23.477Z,71.63
2024-01-19T14:47:30.039Z,51.57
2024-01-19T14:50:39.313Z,103.13
2024-01-19T14:53:47.746Z,161.40
2024-01-19T14:56:55.092Z,167.27
2024-01-19T15:00:04.978Z,189.53
2024-01-19T15:03:11.519Z,172.57
2024-01-19T15:06:18.956Z,202.97
2024-01-19T15:09:25.671Z,215.20
2024-01-19T15:12:33.409Z,184.03
2024-01-19T15:15:41.437Z,174.63
2024-01-19T15:18:48.042Z,163.53
2024-01-19T15:21:56.698Z,159.70
2024-01-19T15:25:03.747Z,141.67
2024-01-19T15:28:10.616Z,35.93
2024-01-19T15:31:23.011Z,30.40
2024-01-19T15:34:29.681Z,37.90
2024-01-19T15:37:37.853Z,25.43
2024-01-19T15:40:44.180Z,31.57
2024-01-19T15:43:51.148Z,73.50
2024-01-19T15:46:59.467Z,86.57
2024-01-19T15:50:07.474Z,87.63
2024-01-19T15:53:14.362Z,80.47
2024-01-19T15:56:26.074Z,45.23
2024-01-19T15:59:38.338Z,57.27
2024-01-19T16:02:46.453Z,66.47
2024-01-19T16:05:54.048Z,25.47
2024-01-19T16:09:00.911Z,53.80
2024-01-19T16:12:07.860Z,82.97
2024-01-19T16:15:14.599Z,113.97
2024-01-19T16:18:22.760Z,79.97
2024-01-19T16:21:29.448Z,41.73
2024-01-19T16:24:36.139Z,114.87
2024-01-19T16:27:42.757Z,31.93
2024-01-19T16:30:50.649Z,78.37
2024-01-19T16:33:58.702Z,73.90
2024-01-19T16:37:05.153Z,77.37
2024-01-19T16:40:13.278Z,131.07
2024-01-19T16:43:20.290Z,127.87
2024-01-19T16:46:26.568Z,114.47
2024-01-19T16:49:34.297Z,135.63
2024-01-19T16:52:40.988Z,133.10
2024-01-19T16:55:48.997Z,127.10
2024-01-19T16:58:55.874Z,97.97
2024-01-19T17:02:02.537Z,91.50
2024-01-19T17:05:10.923Z,138.67
2024-01-19T17:08:18.359Z,133.43
2024-01-19T17:11:26.082Z,155.57
2024-01-19T17:14:36.953Z,131.20
2024-01-19T17:17:43.739Z,149.63
2024-01-19T17:20:51.795Z,155.10
2024-01-19T17:23:59.957Z,186.40
2024-01-19T17:27:09.094Z,195.03
2024-01-19T17:30:16.870Z,196.83
2024-01-19T17:33:24.344Z,245.30
2024-01-19T17:36:33.202Z,177.23
2024-01-19T17:39:40.036Z,225.30
2024-01-19T17:42:47.411Z,170.73
2024-01-19T17:45:54.511Z,155.20
2024-01-19T17:49:00.916Z,198.70
2024-01-19T17:52:10.301Z,188.80
2024-01-19T17:55:17.235Z,179.90
2024-01-19T17:58:24.250Z,136.53
2024-01-19T18:01:31.532Z,166.37
2024-01-19T18:04:38.128Z,151.20
2024-01-19T18:07:46.180Z,151.23
2024-01-19T18:10:53.388Z,156.07
2024-01-19T18:14:00.779Z,131.20
2024-01-19T18:17:07.630Z,259.00
2024-01-19T18:20:14.915Z,335.47
2024-01-19T18:23:22.618Z,289.53
2024-01-19T18:26:29.130Z,237.37
2024-01-19T18:29:37.020Z,224.67
2024-01-19T18:32:43.865Z,177.17
2024-01-19T18:35:51.546Z,178.13
2024-01-19T18:38:59.545Z,151.00
2024-01-19T18:42:06.665Z,142.87
2024-01-19T18:45:14.818Z,165.97
2024-01-19T18:48:21.080Z,136.27
2024-01-19T18:51:27.210Z,135.17
2024-01-19T18:54:35.108Z,123.57
2024-01-19T18:57:42.109Z,169.53
2024-01-19T19:00:48.645Z,123.50
2024-01-19T19:03:55.574Z,63.03
2024-01-19T19:07:04.398Z,86.17
2024-01-19T19:10:12.683Z,116.20
2024-01-19T19:13:18.966Z,98.53
2024-01-19T19:16:35.756Z,108.50
2024-01-19T19:19:51.409Z,116.20
2024-01-19T19:23:00.711Z,90.93
2024-01-19T19:26:14.245Z,110.13
2024-01-19T19:29:20.758Z,80.67
2024-01-19T19:32:27.435Z,123.03
2024-01-19T19:35:34.134Z,150.10
2024-01-19T19:38:44.886Z,224.47
2024-01-19T19:41:53.632Z,101.23
2024-01-19T19:45:00.365Z,140.07
2024-01-19T19:48:09.782Z,117.50
2024-01-19T19:51:18.578Z,108.80
2024-01-19T19:54:25.354Z,101.43
2024-01-19T19:57:33.372Z,118.73
2024-01-19T20:00:40.125Z,161.93
2024-01-19T20:03:46.694Z,241.50
2024-01-19T20:06:53.268Z,174.73
2024-01-19T20:10:00.653Z,99.70
2024-01-19T20:13:09.033Z,129.00
2024-01-19T20:16:16.207Z,115.90
2024-01-19T20:19:22.486Z,187.87
2024-01-19T20:22:29.461Z,172.13
2024-01-19T20:25:36.574Z,189.07
2024-01-19T20:28:45.409Z,218.87
2024-01-19T20:31:52.240Z,214.77
2024-01-19T20:34:58.630Z,115.57
2024-01-19T20:38:05.884Z,100.17
2024-01-19T20:41:13.727Z,109.20
2024-01-19T20:44:22.070Z,131.03
2024-01-19T20:47:28.839Z,78.20
2024-01-19T20:50:35.677Z,91.13
2024-01-19T20:53:44.557Z,87.67
2024-01-19T20:56:54.008Z,105.73
2024-01-19T21:00:06.506Z,133.17
2024-01-19T21:03:13.493Z,113.70
2024-01-19T21:06:21.076Z,137.10
2024-01-19T21:09:29.431Z,139.87
2024-01-19T21:12:36.213Z,239.77
2024-01-19T21:15:48.861Z,152.77
2024-01-19T21:18:55.966Z,60.53
2024-01-19T21:22:05.362Z,71.30
2024-01-19T21:25:14.073Z,78.20
2024-01-19T21:28:20.873Z,154.90
2024-01-19T21:31:29.176Z,180.37
2024-01-19T21:34:36.026Z,132.00
2024-01-19T21:37:42.838Z,128.87
2024-01-19T21:40:50.547Z,130.97
2024-01-19T21:43:58.275Z,136.10
2024-01-19T21:47:09.205Z,129.83
2024-01-19T21:50:16.459Z,101.33
2024-01-19T21:53:23.588Z,88.20
2024-01-19T21:56:30.715Z,82.23
2024-01-19T21:59:37.405Z,64.47
2024-01-19T22:02:47.684Z,79.00
2024-01-19T22:05:56.098Z,85.37
2024-01-19T22:09:02.782Z,89.77
2024-01-19T22:12:10.065Z,100.53
2024-01-19T22:15:16.575Z,114.63
2024-01-19T22:18:24.841Z,157.43
2024-01-19T22:21:31.667Z,121.07
2024-01-19T22:24:38.669Z,118.33
2024-01-19T22:27:45.969Z,112.97
2024-01-19T22:30:52.582Z,116.57
2024-01-19T22:34:01.206Z,126.90
2024-01-19T22:37:08.424Z,146.13
2024-01-19T22:40:15.517Z,138.27
2024-01-19T22:43:22.438Z,64.33
2024-01-19T22:46:30.152Z,50.10
2024-01-19T22:49:39.462Z,43.53
2024-01-19T22:52:46.024Z,45.53
2024-01-19T22:55:54.773Z,40.47
2024-01-19T22:59:04.363Z,41.53
2024-01-19T23:02:11.477Z,54.63
2024-01-19T23:05:19.816Z,80.90
2024-01-19T23:08:26.375Z,64.47
2024-01-19T23:11:33.417Z,75.60
2024-01-19T23:14:40.264Z,85.93
2024-01-19T23:17:47.249Z,113.33
2024-01-19T23:20:55.319Z,122.90
2024-01-19T23:24:01.993Z,99.80
2024-01-19T23:27:09.389Z,113.10
2024-01-19T23:30:16.154Z,79.70
2024-01-19T23:33:23.478Z,85.47
2024-01-19T23:36:31.811Z,69.00
2024-01-19T23:39:39.276Z,60.13
2024-01-19T23:42:46.599Z,59.17
2024-01-19T23:45:53.404Z,46.80
2024-01-19T23:49:00.470Z,47.50
2024-01-19T23:52:08.733Z,57.23
2024-01-19T23:55:16.220Z,40.77
2024-01-19T23:58:22.802Z,36.77
